Hlavní strana
METAR-TAF:

METAR-TAF

Letiště :

Remada, Tunisko

zeměpisná šířka: 32-19N, zeměpisná délka: 010-24E, výška: 300 m

Aktuální stav počasí

Zpráva byla vytvořena před 28 minutami, v 21:00 UTC
Východní vítr 3 kt, proměnlivý mezi severoseverovýchodním a jihovýchodním
Teplota 12°C
Vlhkost vzduchu 76%
Tlak 1024 hPa

METAR: DTTD 282100Z AUTO 08003KT 030V130 NCD 12/08 Q1024

Čas: 22:28 (21:28 UTC)


TAF: chybějící

Stav a předpovědi počasí z více než 4 000 letišť (zprávy METAR a TAF).

Červené a žluté tečky na mapě představují dostupné meteorologické stanice.

Když kurzor umístíte na tečku, zobrazí se název stanice.

Pak kliknutím zobrazíte stav a předpověď počasí.

Chcete-li změnit mapu, kliknutím na zelené tlačítko se znaménkem +mapu přiblížíte, kliknutím na zelené tlačítko se znaménkem – mapu oddálíte a kliknutím na zelené šipky přejdete na sousední mapy.


METAR-TAF: